Time;durP1;ratioP1;P1;durP2;ratioP2;P2;SDS_P1;SDS_P2;PMS_P1;PMS_P2;Temp;Humidity;BMP_temperature;BMP_pressure;BME280_temperature;BME280_humidity;BME280_pressure;Samples;Min_cycle;Max_cycle;Signal;HPM_P1;HPM_P2
2023/08/24 00:00:49;;;;;;;7.50;3.35;;;16.80;99.90;;;;;;4998548;28;20124;-91
2023/08/24 00:03:15;;;;;;;5.90;3.03;;;16.80;99.90;;;;;;4990318;28;20038;-91
2023/08/24 00:05:42;;;;;;;5.18;2.67;;;16.80;99.90;;;;;;4993547;28;20034;-90
2023/08/24 00:08:08;;;;;;;8.85;3.40;;;16.90;99.90;;;;;;4984786;28;20109;-90
2023/08/24 00:10:35;;;;;;;7.65;3.08;;;16.80;99.90;;;;;;4994156;28;20027;-90
2023/08/24 00:13:00;;;;;;;6.90;3.22;;;16.90;99.90;;;;;;4994386;28;20022;-90
2023/08/24 00:15:26;;;;;;;4.38;3.17;;;16.90;99.90;;;;;;4994677;28;20125;-91
2023/08/24 00:17:52;;;;;;;7.55;3.35;;;16.90;99.90;;;;;;4978661;28;20034;-90
2023/08/24 00:20:19;;;;;;;6.40;3.40;;;16.90;99.90;;;;;;4980353;28;20360;-91
2023/08/24 00:22:46;;;;;;;5.13;3.28;;;16.90;99.90;;;;;;4994424;28;20057;-91
2023/08/24 00:25:11;;;;;;;6.63;3.72;;;16.90;99.90;;;;;;4992421;28;20041;-91
2023/08/24 00:27:37;;;;;;;6.28;3.60;;;16.90;99.90;;;;;;4986667;28;20469;-91
2023/08/24 00:30:06;;;;;;;6.15;3.10;;;16.90;99.90;;;;;;4992729;28;20031;-91
2023/08/24 00:32:33;;;;;;;4.80;3.17;;;16.90;99.90;;;;;;4992144;28;20030;-90
2023/08/24 00:34:58;;;;;;;6.93;4.20;;;16.90;99.90;;;;;;4986698;28;20038;-92
2023/08/24 00:37:24;;;;;;;5.45;3.70;;;16.90;99.90;;;;;;4993546;28;20398;-91
2023/08/24 00:39:49;;;;;;;6.07;3.65;;;17.00;99.90;;;;;;4994993;28;20034;-91
2023/08/24 00:42:15;;;;;;;5.32;3.70;;;16.90;99.90;;;;;;4983613;28;20031;-92
2023/08/24 00:44:41;;;;;;;6.20;3.60;;;16.90;99.90;;;;;;4994142;28;20030;-91
2023/08/24 00:47:08;;;;;;;7.57;3.40;;;16.90;99.90;;;;;;4989941;28;20030;-91
2023/08/24 00:49:34;;;;;;;7.20;3.10;;;16.90;99.90;;;;;;4998634;28;20036;-91
2023/08/24 00:52:00;;;;;;;6.13;3.38;;;16.90;99.90;;;;;;4986620;28;20391;-91
2023/08/24 00:54:26;;;;;;;8.65;3.67;;;16.90;99.90;;;;;;4991026;28;20042;-90
2023/08/24 00:56:52;;;;;;;8.05;3.92;;;16.80;99.90;;;;;;4992860;28;20038;-91
2023/08/24 00:59:18;;;;;;;4.45;2.95;;;16.90;99.90;;;;;;4995763;28;20029;-91
2023/08/24 01:01:46;;;;;;;7.28;3.45;;;16.80;99.90;;;;;;4996718;28;20030;-91
2023/08/24 01:04:12;;;;;;;4.63;3.03;;;16.80;99.90;;;;;;4996667;28;20034;-91
2023/08/24 01:06:38;;;;;;;7.68;3.78;;;16.80;99.90;;;;;;4993042;28;20030;-90
2023/08/24 01:09:04;;;;;;;8.32;4.00;;;16.80;99.90;;;;;;4990659;28;20108;-91
2023/08/24 01:11:59;;;;;;;7.78;3.75;;;16.80;99.90;;;;;;5001372;28;20116;-90
2023/08/24 01:14:48;;;;;;;10.30;3.85;;;16.70;99.90;;;;;;5005306;28;20033;-91
2023/08/24 01:17:18;;;;;;;6.45;3.55;;;16.70;99.90;;;;;;4995957;28;20033;-91
2023/08/24 01:19:44;;;;;;;7.40;3.63;;;16.70;99.90;;;;;;4991838;28;20025;-91
2023/08/24 01:22:34;;;;;;;9.95;4.03;;;16.70;99.90;;;;;;4996156;28;20022;-91
2023/08/24 01:25:38;;;;;;;7.65;3.80;;;16.60;99.90;;;;;;5000455;28;20030;-91
2023/08/24 01:28:05;;;;;;;6.60;3.97;;;16.70;99.90;;;;;;5009092;28;20088;-91
2023/08/24 01:30:31;;;;;;;5.72;4.63;;;16.60;99.90;;;;;;4988420;28;20120;-91
2023/08/24 01:32:56;;;;;;;8.57;4.55;;;16.70;99.90;;;;;;4989034;28;20072;-91
2023/08/24 01:35:22;;;;;;;8.55;5.82;;;16.70;99.90;;;;;;4986542;28;20042;-91
2023/08/24 01:37:48;;;;;;;7.78;4.90;;;16.70;99.90;;;;;;4992934;28;20034;-91
2023/08/24 01:40:21;;;;;;;6.57;4.20;;;16.70;99.90;;;;;;4994197;28;20022;-92
2023/08/24 01:43:04;;;;;;;9.82;5.20;;;16.80;99.90;;;;;;4993141;28;20033;-91
2023/08/24 01:45:31;;;;;;;9.15;4.80;;;16.80;99.90;;;;;;4996227;28;20030;-91
2023/08/24 01:48:02;;;;;;;6.97;3.80;;;16.80;99.90;;;;;;4995534;28;20034;-91
2023/08/24 01:50:29;;;;;;;10.35;4.68;;;16.80;99.90;;;;;;4989347;28;20390;-91
2023/08/24 01:52:55;;;;;;;7.72;5.25;;;16.90;99.90;;;;;;4981599;28;20018;-92
2023/08/24 01:55:20;;;;;;;9.50;5.28;;;16.90;99.90;;;;;;4985706;28;20061;-91
2023/08/24 01:57:46;;;;;;;7.82;4.82;;;16.90;99.90;;;;;;4990999;28;20394;-92
2023/08/24 02:00:12;;;;;;;8.00;5.63;;;17.00;99.90;;;;;;4997500;28;20021;-91
2023/08/24 02:02:37;;;;;;;7.93;5.05;;;17.00;99.90;;;;;;4983473;28;20034;-91
2023/08/24 02:05:03;;;;;;;5.65;4.03;;;17.10;99.90;;;;;;4988427;28;20112;-92
2023/08/24 02:07:29;;;;;;;8.48;4.47;;;17.10;99.90;;;;;;4998893;28;20037;-91
2023/08/24 02:09:55;;;;;;;6.13;4.40;;;17.10;99.90;;;;;;4995333;28;20080;-91
2023/08/24 02:12:21;;;;;;;9.02;4.93;;;17.10;99.90;;;;;;4995789;28;20120;-91
2023/08/24 02:14:46;;;;;;;11.35;5.75;;;17.10;99.90;;;;;;4996477;28;20438;-90
2023/08/24 02:17:12;;;;;;;9.77;5.60;;;17.10;99.90;;;;;;4995655;28;20505;-90
2023/08/24 02:19:38;;;;;;;6.90;5.13;;;17.10;99.90;;;;;;4995134;28;20030;-91
2023/08/24 02:22:03;;;;;;;10.55;5.57;;;17.10;99.90;;;;;;4996231;28;20064;-92
2023/08/24 02:24:29;;;;;;;11.57;5.25;;;17.10;99.90;;;;;;4996408;28;20354;-91
2023/08/24 02:26:54;;;;;;;9.38;6.78;;;17.20;99.90;;;;;;4995443;28;20159;-92
2023/08/24 02:29:20;;;;;;;8.30;5.97;;;17.20;99.90;;;;;;4995295;28;20030;-91
2023/08/24 02:31:45;;;;;;;11.35;5.75;;;17.20;99.90;;;;;;4989598;28;20041;-92
2023/08/24 02:34:11;;;;;;;7.07;5.63;;;17.30;99.90;;;;;;4989569;28;20022;-92
2023/08/24 02:36:37;;;;;;;11.48;7.47;;;17.30;99.90;;;;;;4987260;28;20046;-91
2023/08/24 02:39:02;;;;;;;10.60;7.18;;;17.30;99.90;;;;;;4991836;28;20031;-93
2023/08/24 02:41:28;;;;;;;13.45;6.85;;;17.30;99.90;;;;;;5009900;28;20032;-92
2023/08/24 02:43:53;;;;;;;11.32;6.28;;;17.30;99.90;;;;;;4994400;28;20033;-93
2023/08/24 02:46:20;;;;;;;9.90;6.05;;;17.40;99.90;;;;;;4989340;28;20041;-94
2023/08/24 02:48:46;;;;;;;11.95;5.80;;;17.40;99.90;;;;;;4997546;28;20070;-94
2023/08/24 02:51:13;;;;;;;10.95;6.00;;;17.40;99.90;;;;;;4999023;28;20508;-96
2023/08/24 02:53:38;;;;;;;12.52;7.30;;;17.40;99.90;;;;;;4998097;28;20030;-96
2023/08/24 02:56:04;;;;;;;16.55;8.70;;;17.40;99.90;;;;;;4993898;28;20046;-94
2023/08/24 02:58:30;;;;;;;9.13;7.07;;;17.40;99.90;;;;;;4993746;28;20114;-94
2023/08/24 03:00:56;;;;;;;13.85;8.57;;;17.40;99.90;;;;;;4998444;28;20034;-94
2023/08/24 03:03:23;;;;;;;13.23;8.80;;;17.40;99.90;;;;;;5002491;28;20042;-94
2023/08/24 03:06:01;;;;;;;18.38;10.13;;;17.40;99.90;;;;;;4997912;28;20497;-93
2023/08/24 03:08:27;;;;;;;16.15;9.98;;;17.50;99.90;;;;;;5001207;28;20042;-96
2023/08/24 03:10:52;;;;;;;16.38;11.52;;;17.50;99.90;;;;;;5006671;28;20030;-96
2023/08/24 03:13:18;;;;;;;22.15;11.73;;;17.40;99.90;;;;;;4999757;28;20390;-95
2023/08/24 03:15:43;;;;;;;17.98;12.45;;;17.40;99.90;;;;;;4999929;28;20559;-95
2023/08/24 03:18:13;;;;;;;17.45;11.50;;;17.40;99.90;;;;;;4998279;28;20029;-93
2023/08/24 03:20:39;;;;;;;14.65;11.25;;;17.50;99.90;;;;;;4990094;28;20033;-94
2023/08/24 03:23:06;;;;;;;18.85;12.35;;;17.40;99.90;;;;;;4994616;28;20026;-94
2023/08/24 03:25:32;;;;;;;18.02;11.85;;;17.40;99.90;;;;;;4997561;28;20037;-93
2023/08/24 03:27:58;;;;;;;22.13;13.80;;;17.50;99.90;;;;;;5003505;28;20454;-92
2023/08/24 03:30:23;;;;;;;16.67;11.98;;;17.40;99.90;;;;;;4996557;28;20033;-92
2023/08/24 03:32:49;;;;;;;18.67;13.45;;;17.40;99.90;;;;;;4998573;28;20022;-92
2023/08/24 03:35:14;;;;;;;20.70;14.00;;;17.40;99.90;;;;;;4998529;28;20394;-91
2023/08/24 03:37:40;;;;;;;20.65;13.85;;;17.40;99.90;;;;;;4998469;28;20080;-93
2023/08/24 03:40:06;;;;;;;21.55;13.80;;;17.40;99.90;;;;;;4997758;28;20062;-91
2023/08/24 03:42:32;;;;;;;22.05;14.40;;;17.40;99.90;;;;;;4998248;28;20029;-91
2023/08/24 03:44:59;;;;;;;22.05;14.77;;;17.50;99.90;;;;;;4997796;28;20084;-91
2023/08/24 03:47:25;;;;;;;19.55;14.35;;;17.50;99.90;;;;;;4994814;28;20026;-91
2023/08/24 03:49:50;;;;;;;18.98;13.40;;;17.50;99.90;;;;;;5015219;28;20040;-92
2023/08/24 03:52:16;;;;;;;19.77;14.68;;;17.50;99.90;;;;;;4989305;28;20036;-91
2023/08/24 03:54:42;;;;;;;26.77;14.32;;;17.50;99.90;;;;;;4990859;28;20513;-90
2023/08/24 03:57:08;;;;;;;17.88;13.45;;;17.40;99.90;;;;;;4996781;28;20038;-92
2023/08/24 03:59:33;;;;;;;21.95;14.63;;;17.40;99.90;;;;;;4988079;28;20022;-92
2023/08/24 04:02:02;;;;;;;21.13;15.57;;;17.30;99.90;;;;;;4981451;28;20137;-92
2023/08/24 04:04:29;;;;;;;22.85;15.73;;;17.30;99.90;;;;;;4989482;28;20021;-92
2023/08/24 04:06:55;;;;;;;21.67;14.90;;;17.30;99.90;;;;;;4983562;28;20081;-92
2023/08/24 04:09:20;;;;;;;25.40;14.77;;;17.20;99.90;;;;;;5001783;28;20026;-92
2023/08/24 04:11:46;;;;;;;23.70;15.73;;;17.20;99.90;;;;;;4996462;28;20034;-92
2023/08/24 04:14:11;;;;;;;24.75;16.15;;;17.20;99.90;;;;;;4997384;28;20463;-92
2023/08/24 04:16:37;;;;;;;21.05;15.32;;;17.20;99.90;;;;;;4997647;28;20034;-92
2023/08/24 04:19:02;;;;;;;22.35;14.60;;;17.20;99.90;;;;;;4988876;28;20030;-91
2023/08/24 04:21:28;;;;;;;22.00;16.38;;;17.10;99.90;;;;;;4996430;28;20026;-92
2023/08/24 04:23:53;;;;;;;21.88;13.68;;;17.10;99.90;;;;;;4998325;28;20025;-91
2023/08/24 04:26:19;;;;;;;28.20;18.85;;;17.00;99.90;;;;;;4997869;28;20026;-91
2023/08/24 04:28:44;;;;;;;22.05;16.20;;;17.00;99.90;;;;;;4995376;28;20941;-92
2023/08/24 04:31:10;;;;;;;24.10;15.48;;;17.00;99.90;;;;;;4989834;28;20041;-92
2023/08/24 04:33:35;;;;;;;26.33;17.75;;;17.00;99.90;;;;;;4989388;28;20501;-92
2023/08/24 04:36:03;;;;;;;22.75;16.27;;;17.00;99.90;;;;;;4987400;28;20097;-91
2023/08/24 04:38:29;;;;;;;24.75;17.95;;;17.00;99.90;;;;;;4997557;28;20156;-91
2023/08/24 04:40:55;;;;;;;26.10;17.13;;;17.00;99.90;;;;;;4996333;28;20539;-91
2023/08/24 04:43:23;;;;;;;22.85;16.67;;;17.00;99.90;;;;;;4994229;28;20022;-91
2023/08/24 04:45:52;;;;;;;22.60;16.95;;;17.00;99.90;;;;;;4995976;28;20041;-91
2023/08/24 04:48:18;;;;;;;24.38;16.63;;;17.00;99.90;;;;;;4997024;28;20034;-91
2023/08/24 04:50:44;;;;;;;23.30;16.63;;;17.00;99.90;;;;;;5000494;28;20038;-91
2023/08/24 04:53:11;;;;;;;23.35;16.17;;;17.00;99.90;;;;;;4997228;28;20029;-91
2023/08/24 04:55:37;;;;;;;25.05;18.23;;;16.90;99.90;;;;;;4997301;28;20129;-90
2023/08/24 04:58:03;;;;;;;23.48;16.52;;;16.90;99.90;;;;;;4996751;28;20072;-91
2023/08/24 05:00:28;;;;;;;23.00;17.20;;;16.90;99.90;;;;;;4988510;28;20022;-90
2023/08/24 05:02:54;;;;;;;22.42;17.35;;;16.90;99.90;;;;;;4995568;28;20398;-91
2023/08/24 05:05:20;;;;;;;24.77;17.10;;;16.90;99.90;;;;;;5003033;28;20029;-92
2023/08/24 05:07:45;;;;;;;29.45;18.40;;;16.90;99.90;;;;;;4992825;28;20036;-91
2023/08/24 05:10:11;;;;;;;26.42;18.65;;;16.90;99.90;;;;;;4978817;28;20026;-91
2023/08/24 05:12:36;;;;;;;25.75;19.42;;;16.90;99.90;;;;;;4988984;28;20041;-90
2023/08/24 05:15:03;;;;;;;29.80;18.60;;;16.90;99.90;;;;;;4996018;28;20036;-92
2023/08/24 05:17:29;;;;;;;24.92;18.35;;;16.90;99.90;;;;;;4994569;28;20037;-90
2023/08/24 05:19:55;;;;;;;22.98;18.38;;;16.90;99.90;;;;;;4990305;28;20038;-91
2023/08/24 05:22:20;;;;;;;26.65;19.00;;;16.90;99.90;;;;;;4979942;28;20045;-91
2023/08/24 05:24:46;;;;;;;23.00;18.73;;;16.90;99.90;;;;;;4996223;28;20053;-91
2023/08/24 05:27:12;;;;;;;25.70;18.45;;;16.90;99.90;;;;;;4996712;28;20029;-91
2023/08/24 05:29:37;;;;;;;24.20;18.40;;;16.90;99.90;;;;;;5008078;28;20044;-91
2023/08/24 05:32:03;;;;;;;23.88;18.83;;;17.00;99.90;;;;;;4986744;28;20034;-91
2023/08/24 05:34:29;;;;;;;24.50;18.48;;;17.00;99.90;;;;;;4995554;28;20146;-91
2023/08/24 05:36:54;;;;;;;23.85;18.15;;;17.10;99.90;;;;;;4995612;28;20510;-91
2023/08/24 05:39:20;;;;;;;24.67;19.02;;;17.10;99.90;;;;;;4996344;28;20301;-91
2023/08/24 05:41:45;;;;;;;21.38;17.25;;;17.20;99.90;;;;;;4994614;28;20033;-90
2023/08/24 05:44:11;;;;;;;27.45;18.55;;;17.20;99.90;;;;;;4988896;28;20019;-91
2023/08/24 05:46:36;;;;;;;24.05;19.42;;;17.30;99.90;;;;;;4997322;28;20125;-90
2023/08/24 05:49:02;;;;;;;23.17;18.98;;;17.30;99.90;;;;;;5003631;28;20363;-91
2023/08/24 05:51:28;;;;;;;29.98;20.65;;;17.40;99.90;;;;;;4992962;28;20026;-91
2023/08/24 05:53:55;;;;;;;22.60;17.77;;;17.50;99.90;;;;;;4994433;28;20026;-90
2023/08/24 05:56:24;;;;;;;25.45;19.10;;;17.50;99.90;;;;;;4988579;28;20109;-90
2023/08/24 05:58:50;;;;;;;26.52;20.75;;;17.60;99.90;;;;;;5008599;28;20038;-91
2023/08/24 06:01:16;;;;;;;30.23;20.85;;;17.70;99.90;;;;;;4988180;28;20386;-91
2023/08/24 06:03:42;;;;;;;22.88;17.23;;;17.80;99.90;;;;;;4991922;28;20023;-91
2023/08/24 06:06:08;;;;;;;26.65;20.27;;;17.80;99.90;;;;;;4984315;28;20074;-91
2023/08/24 06:08:34;;;;;;;26.58;20.92;;;18.00;99.90;;;;;;4992799;28;20027;-90
2023/08/24 06:11:00;;;;;;;28.05;20.58;;;18.00;99.90;;;;;;4992794;28;20033;-90
2023/08/24 06:13:26;;;;;;;28.13;21.35;;;18.10;99.90;;;;;;4988469;28;20369;-90
2023/08/24 06:15:52;;;;;;;25.13;21.52;;;18.20;99.90;;;;;;5002790;28;20034;-91
2023/08/24 06:18:18;;;;;;;27.55;20.90;;;18.30;99.90;;;;;;4991066;28;20060;-91
2023/08/24 06:20:43;;;;;;;28.85;21.30;;;18.30;99.90;;;;;;4992708;28;20050;-90
2023/08/24 06:23:08;;;;;;;23.65;18.58;;;18.40;99.90;;;;;;5002093;28;20026;-90
2023/08/24 06:25:35;;;;;;;27.52;21.30;;;18.50;99.90;;;;;;5001061;28;20034;-90
2023/08/24 06:28:03;;;;;;;26.25;19.70;;;18.60;99.90;;;;;;4991074;28;20375;-89
2023/08/24 06:30:32;;;;;;;24.73;19.13;;;18.70;99.90;;;;;;4992094;28;20026;-90
2023/08/24 06:32:58;;;;;;;28.77;19.23;;;18.80;99.90;;;;;;4991633;28;20034;-89
2023/08/24 06:35:24;;;;;;;29.58;20.73;;;18.90;99.90;;;;;;4992307;28;20026;-89
2023/08/24 06:37:49;;;;;;;22.67;16.45;;;19.00;99.90;;;;;;4989905;28;20113;-89
2023/08/24 06:40:17;;;;;;;20.15;17.00;;;19.00;99.90;;;;;;4991437;28;20022;-89
2023/08/24 06:42:43;;;;;;;24.33;18.25;;;19.20;99.90;;;;;;4991888;28;20023;-89
2023/08/24 06:45:10;;;;;;;23.30;17.67;;;19.20;99.90;;;;;;4992611;28;20402;-89
2023/08/24 06:47:36;;;;;;;23.55;18.40;;;19.40;99.90;;;;;;4991775;28;20089;-89
2023/08/24 06:50:01;;;;;;;21.42;16.35;;;19.40;99.90;;;;;;4992169;28;20475;-89
2023/08/24 06:52:27;;;;;;;22.75;18.38;;;19.50;99.90;;;;;;4977147;28;20027;-90
2023/08/24 06:54:55;;;;;;;23.63;19.65;;;19.60;99.90;;;;;;4989999;28;20049;-90
2023/08/24 06:57:21;;;;;;;24.15;18.20;;;19.60;99.90;;;;;;4978204;28;20054;-91
2023/08/24 06:59:47;;;;;;;20.98;17.45;;;19.70;99.90;;;;;;4988644;28;20030;-90
2023/08/24 07:02:12;;;;;;;20.02;16.67;;;19.90;99.90;;;;;;4980561;28;20125;-90
2023/08/24 07:04:40;;;;;;;23.70;17.58;;;19.90;99.90;;;;;;4992322;28;20019;-90
2023/08/24 07:07:06;;;;;;;22.13;16.50;;;20.10;99.90;;;;;;5002055;28;20030;-89
2023/08/24 07:09:31;;;;;;;26.23;16.75;;;20.20;99.90;;;;;;4984985;28;20029;-89
2023/08/24 07:11:57;;;;;;;18.70;16.23;;;20.30;99.90;;;;;;4978256;28;20038;-90
2023/08/24 07:14:22;;;;;;;19.98;16.30;;;20.40;99.90;;;;;;4990749;28;20037;-90
2023/08/24 07:16:48;;;;;;;19.90;14.73;;;20.50;99.90;;;;;;4992073;28;20156;-90
2023/08/24 07:19:14;;;;;;;19.80;15.15;;;20.60;99.90;;;;;;4985588;28;20023;-90
2023/08/24 07:21:39;;;;;;;17.75;14.57;;;20.60;99.90;;;;;;4989803;28;20070;-90
2023/08/24 07:24:05;;;;;;;17.90;14.55;;;20.70;99.90;;;;;;4980879;28;20026;-88
2023/08/24 07:26:31;;;;;;;21.63;14.52;;;20.90;99.90;;;;;;4985264;28;20064;-89
2023/08/24 07:28:57;;;;;;;20.30;14.55;;;21.10;99.90;;;;;;4997151;28;20037;-89
2023/08/24 07:31:22;;;;;;;19.15;13.55;;;21.10;99.90;;;;;;4991482;28;20028;-89
2023/08/24 07:33:48;;;;;;;15.20;12.85;;;21.20;99.90;;;;;;4992395;28;20026;-90
2023/08/24 07:36:14;;;;;;;20.10;12.93;;;21.40;99.90;;;;;;4995415;28;20030;-89
2023/08/24 07:38:39;;;;;;;19.55;13.45;;;21.50;99.90;;;;;;4995626;28;20168;-89
2023/08/24 07:41:06;;;;;;;23.15;13.50;;;21.60;99.90;;;;;;4995333;28;20030;-89
2023/08/24 07:43:32;;;;;;;13.52;10.55;;;21.70;99.90;;;;;;4989608;28;20026;-89
2023/08/24 07:45:59;;;;;;;11.90;9.05;;;21.80;99.90;;;;;;4994869;28;20045;-89
2023/08/24 07:48:24;;;;;;;11.45;8.02;;;21.90;99.90;;;;;;4989343;28;20065;-90
2023/08/24 07:50:50;;;;;;;11.00;7.80;;;22.00;99.90;;;;;;4989046;28;20061;-90
2023/08/24 07:53:16;;;;;;;11.57;8.32;;;22.20;99.90;;;;;;4989500;28;20497;-90
2023/08/24 07:55:43;;;;;;;11.43;7.13;;;22.30;99.90;;;;;;4997024;28;20042;-89
2023/08/24 07:58:08;;;;;;;12.15;7.55;;;22.50;99.90;;;;;;4988002;28;20555;-90
2023/08/24 08:00:34;;;;;;;12.20;7.85;;;22.60;99.90;;;;;;4986508;28;20061;-90
2023/08/24 08:03:00;;;;;;;9.75;7.15;;;22.70;99.90;;;;;;5002513;28;20027;-89
2023/08/24 08:05:26;;;;;;;11.45;7.07;;;22.80;99.90;;;;;;4985565;28;20027;-90
2023/08/24 08:07:52;;;;;;;13.48;7.93;;;22.90;99.90;;;;;;4993763;28;20085;-90
2023/08/24 08:10:20;;;;;;;12.45;7.22;;;23.00;99.90;;;;;;4981644;28;20027;-90
2023/08/24 08:12:45;;;;;;;11.82;7.53;;;23.10;99.90;;;;;;4986958;28;20034;-90
2023/08/24 08:15:11;;;;;;;13.38;7.35;;;23.20;99.90;;;;;;5005215;28;20105;-90
2023/08/24 08:17:37;;;;;;;12.35;7.80;;;23.40;99.90;;;;;;4993531;28;20530;-90
2023/08/24 08:20:03;;;;;;;12.32;7.50;;;23.50;99.90;;;;;;4994248;28;20053;-91
2023/08/24 08:22:28;;;;;;;13.10;8.07;;;23.60;99.90;;;;;;4994030;28;20455;-91
2023/08/24 08:24:56;;;;;;;12.10;7.50;;;23.70;99.90;;;;;;4991372;28;20053;-90
2023/08/24 08:27:22;;;;;;;10.25;7.35;;;23.80;99.90;;;;;;4980153;28;20035;-90
2023/08/24 08:29:48;;;;;;;10.27;7.60;;;24.00;99.90;;;;;;4996483;28;20825;-90
2023/08/24 08:32:14;;;;;;;10.02;7.68;;;24.10;99.90;;;;;;4991573;28;20061;-90
2023/08/24 08:34:39;;;;;;;12.35;6.75;;;24.10;99.90;;;;;;4978212;28;20056;-91
2023/08/24 08:37:05;;;;;;;8.65;6.30;;;24.30;99.90;;;;;;4994239;28;20511;-90
2023/08/24 08:39:32;;;;;;;10.32;6.30;;;24.40;99.90;;;;;;4998535;28;20061;-90
2023/08/24 08:41:58;;;;;;;11.30;7.18;;;24.50;99.90;;;;;;4991364;28;20038;-91
2023/08/24 08:44:29;;;;;;;11.20;6.85;;;24.60;99.90;;;;;;4975991;28;20019;-90
2023/08/24 08:46:57;;;;;;;10.95;6.78;;;24.70;99.90;;;;;;4983314;28;20042;-90
2023/08/24 08:49:22;;;;;;;11.77;6.85;;;24.70;99.90;;;;;;4990693;28;20027;-91
2023/08/24 08:51:49;;;;;;;10.02;6.45;;;24.90;99.90;;;;;;4993813;28;20037;-90
2023/08/24 08:54:14;;;;;;;8.65;4.85;;;25.10;99.90;;;;;;4994582;28;20029;-91
2023/08/24 08:56:40;;;;;;;9.98;5.75;;;25.10;99.90;;;;;;4997300;28;20477;-90
2023/08/24 08:59:10;;;;;;;9.20;5.50;;;25.20;99.90;;;;;;4996478;28;20109;-90
2023/08/24 09:01:37;;;;;;;9.95;5.95;;;25.30;99.90;;;;;;4997069;28;20387;-90
2023/08/24 09:04:04;;;;;;;10.27;5.50;;;25.40;99.90;;;;;;4992347;28;20113;-91
2023/08/24 09:06:30;;;;;;;6.88;5.25;;;25.40;99.90;;;;;;4988042;28;20026;-91
2023/08/24 09:08:56;;;;;;;6.35;4.80;;;25.40;99.90;;;;;;4996531;28;20486;-91
2023/08/24 09:11:23;;;;;;;7.20;4.25;;;25.50;99.90;;;;;;4988100;28;20440;-91
2023/08/24 09:13:49;;;;;;;8.57;4.00;;;25.60;99.90;;;;;;4996920;28;20060;-91
2023/08/24 09:16:16;;;;;;;7.00;4.45;;;25.70;99.90;;;;;;4986912;28;20457;-91
2023/08/24 09:18:44;;;;;;;9.00;4.60;;;25.80;99.90;;;;;;4996700;28;20041;-91
2023/08/24 09:21:11;;;;;;;10.63;5.22;;;25.90;99.90;;;;;;4996577;28;20026;-91
2023/08/24 09:23:48;;;;;;;8.02;4.85;;;25.90;99.90;;;;;;4984749;28;20061;-91
2023/08/24 09:26:13;;;;;;;7.45;4.05;;;26.00;99.90;;;;;;4994564;28;20030;-91
2023/08/24 09:28:43;;;;;;;6.50;4.43;;;26.00;99.90;;;;;;5001908;28;20049;-91
2023/08/24 09:31:11;;;;;;;5.88;3.83;;;26.10;99.90;;;;;;4999639;28;20095;-91
2023/08/24 09:33:37;;;;;;;10.57;4.10;;;26.20;99.90;;;;;;4996530;28;20026;-91
2023/08/24 09:36:06;;;;;;;8.85;4.50;;;26.30;99.90;;;;;;4996384;28;20042;-92
2023/08/24 09:38:31;;;;;;;7.47;4.40;;;26.30;99.90;;;;;;4996024;28;20069;-91
2023/08/24 09:40:57;;;;;;;6.15;3.80;;;26.40;99.90;;;;;;4988609;28;20061;-91
2023/08/24 09:43:23;;;;;;;8.50;4.60;;;26.50;99.90;;;;;;4992866;28;20033;-91
2023/08/24 09:45:56;;;;;;;7.75;4.03;;;26.60;99.90;;;;;;5001698;28;20029;-91
2023/08/24 09:48:23;;;;;;;9.15;3.88;;;26.60;99.90;;;;;;4987403;28;20483;-90
2023/08/24 09:50:51;;;;;;;8.40;3.80;;;26.60;99.90;;;;;;4978149;28;20120;-92
2023/08/24 09:53:23;;;;;;;4.88;3.45;;;26.80;99.90;;;;;;5005842;28;20121;-91
2023/08/24 09:56:00;;;;;;;6.30;3.20;;;27.00;99.90;;;;;;4991963;28;20058;-91
2023/08/24 09:58:26;;;;;;;6.53;3.25;;;27.00;99.90;;;;;;4997039;28;20026;-90
2023/08/24 10:00:52;;;;;;;8.88;3.85;;;27.10;99.90;;;;;;5010406;28;20022;-92
2023/08/24 10:03:22;;;;;;;7.30;4.00;;;27.10;99.90;;;;;;4996137;28;20072;-91
2023/08/24 10:06:00;;;;;;;7.78;4.35;;;27.10;99.90;;;;;;4978712;28;20033;-92
2023/08/24 10:08:34;;;;;;;9.13;4.60;;;27.00;99.90;;;;;;4996088;28;20021;-91
2023/08/24 10:10:59;;;;;;;7.57;3.28;;;26.90;99.90;;;;;;4987054;28;20033;-91
2023/08/24 10:14:16;;;;;;;9.35;3.95;;;26.70;99.90;;;;;;4995858;28;20026;-90
2023/08/24 10:16:43;;;;;;;7.18;3.67;;;26.70;99.90;;;;;;4954073;28;20396;-91
2023/08/24 10:19:10;;;;;;;6.55;3.25;;;26.40;99.90;;;;;;4993563;28;20053;-90
2023/08/24 10:21:38;;;;;;;5.40;3.40;;;26.30;99.90;;;;;;5005383;28;20482;-92
2023/08/24 10:24:04;;;;;;;8.40;3.42;;;26.20;99.90;;;;;;4995869;28;20030;-91
2023/08/24 10:26:32;;;;;;;5.75;3.03;;;26.00;99.90;;;;;;4996454;28;20032;-90
2023/08/24 10:28:58;;;;;;;6.43;3.22;;;25.90;99.90;;;;;;4994488;28;20034;-92
2023/08/24 10:31:24;;;;;;;7.50;4.13;;;25.70;99.90;;;;;;4990107;28;20041;-91
2023/08/24 10:33:51;;;;;;;11.27;4.13;;;25.60;99.90;;;;;;4989321;28;20030;-90
2023/08/24 10:36:18;;;;;;;4.68;2.70;;;25.60;99.90;;;;;;4991630;28;20403;-90
2023/08/24 10:38:43;;;;;;;5.78;2.78;;;25.60;99.90;;;;;;4992560;28;20042;-90
2023/08/24 10:41:13;;;;;;;10.55;4.30;;;25.50;99.90;;;;;;4989175;28;20018;-92
2023/08/24 10:43:40;;;;;;;8.18;3.90;;;25.40;99.90;;;;;;4995445;28;20111;-90
2023/08/24 10:46:16;;;;;;;4.78;3.38;;;25.40;99.90;;;;;;4995164;28;20467;-91
2023/08/24 10:48:41;;;;;;;4.25;2.88;;;25.40;99.90;;;;;;4995754;28;20022;-90
2023/08/24 10:51:13;;;;;;;8.38;4.28;;;25.40;99.90;;;;;;5012038;28;20486;-90
2023/08/24 10:53:40;;;;;;;7.03;2.90;;;25.30;99.90;;;;;;4987554;28;20022;-91
2023/08/24 10:56:17;;;;;;;6.53;2.83;;;25.30;99.90;;;;;;4993602;28;20069;-89
2023/08/24 10:58:44;;;;;;;6.53;3.75;;;25.30;99.90;;;;;;5015270;28;20030;-90
2023/08/24 11:01:17;;;;;;;8.18;3.38;;;25.30;99.90;;;;;;4997338;28;20026;-90
2023/08/24 11:03:55;;;;;;;5.93;2.75;;;25.40;99.90;;;;;;4990704;28;20156;-89
2023/08/24 11:06:22;;;;;;;7.15;3.13;;;25.40;99.90;;;;;;5003165;28;20026;-90
2023/08/24 11:08:49;;;;;;;9.00;3.55;;;25.40;99.90;;;;;;4993044;28;20026;-91
2023/08/24 11:11:19;;;;;;;13.18;5.65;;;25.40;99.90;;;;;;4989080;28;20500;-90
2023/08/24 11:14:13;;;;;;;10.88;5.85;;;25.50;99.90;;;;;;5012498;28;20030;-90
2023/08/24 11:16:43;;;;;;;11.15;6.90;;;25.50;99.90;;;;;;5009387;28;20030;-90
2023/08/24 11:19:10;;;;;;;9.18;6.47;;;25.50;99.90;;;;;;4983732;28;20540;-90
2023/08/24 11:21:36;;;;;;;10.35;7.13;;;25.50;99.90;;;;;;4995804;28;20120;-90
2023/08/24 11:24:02;;;;;;;10.68;6.60;;;25.50;99.90;;;;;;4994543;28;20549;-90
2023/08/24 11:26:29;;;;;;;10.48;7.22;;;25.50;99.90;;;;;;4989315;28;20022;-90
2023/08/24 11:28:57;;;;;;;9.75;6.90;;;25.60;99.90;;;;;;4993464;28;20022;-90
2023/08/24 11:31:26;;;;;;;12.52;7.03;;;25.60;99.90;;;;;;4984399;28;20030;-90
2023/08/24 11:33:56;;;;;;;11.52;7.60;;;25.70;99.90;;;;;;4998142;28;20025;-89
2023/08/24 11:36:23;;;;;;;9.18;6.75;;;25.80;99.90;;;;;;4990735;28;20038;-90
2023/08/24 11:38:52;;;;;;;13.85;6.90;;;25.90;99.90;;;;;;4996117;28;20113;-92
2023/08/24 11:41:21;;;;;;;11.07;6.32;;;26.00;99.90;;;;;;4983443;28;20030;-91
2023/08/24 11:43:48;;;;;;;10.07;6.43;;;26.10;99.90;;;;;;4983621;28;20504;-90
2023/08/24 11:46:18;;;;;;;10.38;7.50;;;26.30;99.90;;;;;;5002733;28;20029;-93
2023/08/24 11:48:45;;;;;;;10.40;7.43;;;26.40;99.90;;;;;;4990852;28;20018;-92
2023/08/24 11:51:12;;;;;;;10.70;6.70;;;26.50;99.90;;;;;;5010532;28;20116;-90
2023/08/24 11:53:45;;;;;;;11.15;7.72;;;26.50;99.90;;;;;;4998385;28;20037;-91
2023/08/24 11:56:12;;;;;;;11.32;7.15;;;26.60;99.90;;;;;;4991322;28;20045;-91
2023/08/24 11:58:42;;;;;;;11.07;7.18;;;26.60;99.90;;;;;;4995295;28;20026;-92
2023/08/24 12:01:09;;;;;;;13.38;7.53;;;26.70;99.90;;;;;;4997355;28;20120;-91
2023/08/24 12:03:38;;;;;;;15.90;7.68;;;26.80;99.90;;;;;;4996068;28;20050;-92
2023/08/24 12:06:12;;;;;;;10.40;7.63;;;26.80;99.90;;;;;;4990767;28;20391;-91
2023/08/24 12:08:40;;;;;;;10.90;7.60;;;26.90;99.90;;;;;;4993397;28;20037;-91
2023/08/24 12:11:17;;;;;;;10.43;6.93;;;26.90;99.90;;;;;;5008363;28;20030;-93
2023/08/24 12:13:48;;;;;;;12.05;7.32;;;27.00;99.90;;;;;;4997414;28;20109;-93
2023/08/24 12:16:16;;;;;;;12.43;8.33;;;26.90;99.90;;;;;;4992746;28;20037;-92
2023/08/24 12:18:51;;;;;;;10.80;7.53;;;26.90;99.90;;;;;;4997450;28;20482;-92
2023/08/24 12:21:17;;;;;;;9.80;7.03;;;27.00;99.90;;;;;;5004079;28;20026;-92
2023/08/24 12:23:42;;;;;;;10.80;6.85;;;26.90;99.90;;;;;;5005625;28;20095;-92
2023/08/24 12:26:08;;;;;;;10.38;7.28;;;26.90;99.90;;;;;;4993985;28;20042;-93
2023/08/24 12:28:34;;;;;;;15.15;7.68;;;26.80;99.90;;;;;;4988963;28;20033;-92
2023/08/24 12:31:03;;;;;;;10.45;6.65;;;26.80;99.90;;;;;;5013655;28;20033;-91
2023/08/24 12:33:31;;;;;;;11.77;5.72;;;26.70;99.90;;;;;;4994030;28;20032;-91
2023/08/24 12:36:00;;;;;;;11.00;4.50;;;26.70;99.90;;;;;;4997251;28;20577;-89